sensor_id;sensor_type;location;lat;lon;timestamp;P1;durP1;ratioP1;P2;durP2;ratioP2
9904;SDS011;4991;43.566;27.820;2023-08-06T00:02:18;23.00;;;20.17;;
9904;SDS011;4991;43.566;27.820;2023-08-06T00:04:44;23.88;;;18.52;;
9904;SDS011;4991;43.566;27.820;2023-08-06T00:07:10;22.00;;;18.88;;
9904;SDS011;4991;43.566;27.820;2023-08-06T00:09:35;21.70;;;18.57;;
9904;SDS011;4991;43.566;27.820;2023-08-06T00:12:01;20.70;;;18.50;;
9904;SDS011;4991;43.566;27.820;2023-08-06T00:14:27;21.73;;;19.40;;
9904;SDS011;4991;43.566;27.820;2023-08-06T00:16:52;26.80;;;18.85;;
9904;SDS011;4991;43.566;27.820;2023-08-06T00:19:18;21.98;;;19.67;;
9904;SDS011;4991;43.566;27.820;2023-08-06T00:21:44;25.17;;;20.67;;
9904;SDS011;4991;43.566;27.820;2023-08-06T00:24:09;22.90;;;18.87;;
9904;SDS011;4991;43.566;27.820;2023-08-06T00:26:35;23.05;;;19.08;;
9904;SDS011;4991;43.566;27.820;2023-08-06T00:29:00;21.80;;;19.53;;
9904;SDS011;4991;43.566;27.820;2023-08-06T00:31:26;22.67;;;19.70;;
9904;SDS011;4991;43.566;27.820;2023-08-06T00:33:52;20.73;;;18.73;;
9904;SDS011;4991;43.566;27.820;2023-08-06T00:36:17;20.33;;;18.33;;
9904;SDS011;4991;43.566;27.820;2023-08-06T00:38:43;21.45;;;19.30;;
9904;SDS011;4991;43.566;27.820;2023-08-06T00:41:08;23.83;;;18.52;;
9904;SDS011;4991;43.566;27.820;2023-08-06T00:43:34;22.73;;;17.87;;
9904;SDS011;4991;43.566;27.820;2023-08-06T00:45:59;20.70;;;18.53;;
9904;SDS011;4991;43.566;27.820;2023-08-06T00:48:25;24.60;;;19.13;;
9904;SDS011;4991;43.566;27.820;2023-08-06T00:50:51;21.20;;;18.30;;
9904;SDS011;4991;43.566;27.820;2023-08-06T00:53:17;22.37;;;18.43;;
9904;SDS011;4991;43.566;27.820;2023-08-06T00:55:44;20.98;;;18.77;;
9904;SDS011;4991;43.566;27.820;2023-08-06T00:58:10;22.30;;;18.07;;
9904;SDS011;4991;43.566;27.820;2023-08-06T01:00:36;22.17;;;18.17;;
9904;SDS011;4991;43.566;27.820;2023-08-06T01:03:03;20.73;;;17.63;;
9904;SDS011;4991;43.566;27.820;2023-08-06T01:05:28;22.23;;;17.93;;
9904;SDS011;4991;43.566;27.820;2023-08-06T01:13:18;18.27;;;16.40;;
9904;SDS011;4991;43.566;27.820;2023-08-06T01:15:53;20.80;;;17.33;;
9904;SDS011;4991;43.566;27.820;2023-08-06T01:18:25;20.07;;;17.93;;
9904;SDS011;4991;43.566;27.820;2023-08-06T01:20:51;19.42;;;17.05;;
9904;SDS011;4991;43.566;27.820;2023-08-06T01:23:17;22.50;;;17.30;;
9904;SDS011;4991;43.566;27.820;2023-08-06T01:25:49;20.53;;;18.27;;
9904;SDS011;4991;43.566;27.820;2023-08-06T01:28:18;21.05;;;17.65;;
9904;SDS011;4991;43.566;27.820;2023-08-06T01:31:01;19.10;;;17.00;;
9904;SDS011;4991;43.566;27.820;2023-08-06T01:33:30;23.75;;;17.55;;
9904;SDS011;4991;43.566;27.820;2023-08-06T01:35:58;19.88;;;17.77;;
9904;SDS011;4991;43.566;27.820;2023-08-06T01:38:24;21.90;;;17.37;;
9904;SDS011;4991;43.566;27.820;2023-08-06T01:40:50;20.85;;;17.08;;
9904;SDS011;4991;43.566;27.820;2023-08-06T01:43:16;18.63;;;16.70;;
9904;SDS011;4991;43.566;27.820;2023-08-06T01:45:41;21.33;;;15.93;;
9904;SDS011;4991;43.566;27.820;2023-08-06T01:48:07;18.52;;;16.40;;
9904;SDS011;4991;43.566;27.820;2023-08-06T01:50:33;18.80;;;16.73;;
9904;SDS011;4991;43.566;27.820;2023-08-06T01:52:59;21.02;;;18.38;;
9904;SDS011;4991;43.566;27.820;2023-08-06T01:55:24;17.98;;;16.10;;
9904;SDS011;4991;43.566;27.820;2023-08-06T01:57:50;17.60;;;15.65;;
9904;SDS011;4991;43.566;27.820;2023-08-06T02:00:15;17.17;;;15.27;;
9904;SDS011;4991;43.566;27.820;2023-08-06T02:02:41;18.73;;;16.02;;
9904;SDS011;4991;43.566;27.820;2023-08-06T02:05:07;19.33;;;15.15;;
9904;SDS011;4991;43.566;27.820;2023-08-06T02:07:32;20.20;;;16.20;;
9904;SDS011;4991;43.566;27.820;2023-08-06T02:09:58;23.02;;;16.15;;
9904;SDS011;4991;43.566;27.820;2023-08-06T02:12:24;20.42;;;16.02;;
9904;SDS011;4991;43.566;27.820;2023-08-06T02:14:49;22.45;;;17.48;;
9904;SDS011;4991;43.566;27.820;2023-08-06T02:17:15;18.08;;;16.15;;
9904;SDS011;4991;43.566;27.820;2023-08-06T02:19:40;20.65;;;17.08;;
9904;SDS011;4991;43.566;27.820;2023-08-06T02:22:08;23.67;;;17.67;;
9904;SDS011;4991;43.566;27.820;2023-08-06T02:24:33;22.35;;;16.85;;
9904;SDS011;4991;43.566;27.820;2023-08-06T02:26:59;19.80;;;17.73;;
9904;SDS011;4991;43.566;27.820;2023-08-06T02:29:25;20.87;;;17.93;;
9904;SDS011;4991;43.566;27.820;2023-08-06T02:31:51;20.15;;;16.38;;
9904;SDS011;4991;43.566;27.820;2023-08-06T02:34:16;20.23;;;16.70;;
9904;SDS011;4991;43.566;27.820;2023-08-06T02:36:42;23.37;;;17.93;;
9904;SDS011;4991;43.566;27.820;2023-08-06T02:39:07;19.43;;;17.30;;
9904;SDS011;4991;43.566;27.820;2023-08-06T02:41:33;20.52;;;16.83;;
9904;SDS011;4991;43.566;27.820;2023-08-06T02:43:58;18.90;;;16.90;;
9904;SDS011;4991;43.566;27.820;2023-08-06T02:46:24;20.90;;;18.20;;
9904;SDS011;4991;43.566;27.820;2023-08-06T02:48:50;20.93;;;17.63;;
9904;SDS011;4991;43.566;27.820;2023-08-06T02:51:15;27.10;;;19.50;;
9904;SDS011;4991;43.566;27.820;2023-08-06T02:53:41;22.00;;;18.40;;
9904;SDS011;4991;43.566;27.820;2023-08-06T02:56:06;24.53;;;18.30;;
9904;SDS011;4991;43.566;27.820;2023-08-06T02:58:32;30.92;;;20.08;;
9904;SDS011;4991;43.566;27.820;2023-08-06T03:01:04;20.73;;;18.53;;
9904;SDS011;4991;43.566;27.820;2023-08-06T03:03:32;21.17;;;18.85;;
9904;SDS011;4991;43.566;27.820;2023-08-06T03:05:58;22.20;;;17.07;;
9904;SDS011;4991;43.566;27.820;2023-08-06T03:08:24;20.30;;;17.70;;
9904;SDS011;4991;43.566;27.820;2023-08-06T03:10:51;21.27;;;18.73;;
9904;SDS011;4991;43.566;27.820;2023-08-06T03:13:17;22.38;;;19.55;;
9904;SDS011;4991;43.566;27.820;2023-08-06T03:15:43;22.55;;;18.98;;
9904;SDS011;4991;43.566;27.820;2023-08-06T03:18:16;20.77;;;18.57;;
9904;SDS011;4991;43.566;27.820;2023-08-06T03:20:42;20.73;;;16.88;;
9904;SDS011;4991;43.566;27.820;2023-08-06T03:23:07;19.83;;;17.83;;
9904;SDS011;4991;43.566;27.820;2023-08-06T03:25:35;21.80;;;19.27;;
9904;SDS011;4991;43.566;27.820;2023-08-06T03:28:00;22.93;;;19.63;;
9904;SDS011;4991;43.566;27.820;2023-08-06T03:30:26;22.83;;;16.92;;
9904;SDS011;4991;43.566;27.820;2023-08-06T03:32:52;21.50;;;18.80;;
9904;SDS011;4991;43.566;27.820;2023-08-06T03:35:17;24.73;;;18.85;;
9904;SDS011;4991;43.566;27.820;2023-08-06T03:37:43;23.57;;;19.87;;
9904;SDS011;4991;43.566;27.820;2023-08-06T03:40:09;24.02;;;20.20;;
9904;SDS011;4991;43.566;27.820;2023-08-06T03:42:35;22.20;;;18.83;;
9904;SDS011;4991;43.566;27.820;2023-08-06T03:45:01;23.33;;;19.03;;
9904;SDS011;4991;43.566;27.820;2023-08-06T03:47:26;21.47;;;18.50;;
9904;SDS011;4991;43.566;27.820;2023-08-06T03:49:52;23.55;;;19.55;;
9904;SDS011;4991;43.566;27.820;2023-08-06T03:52:18;21.75;;;19.52;;
9904;SDS011;4991;43.566;27.820;2023-08-06T03:54:43;20.85;;;18.67;;
9904;SDS011;4991;43.566;27.820;2023-08-06T03:57:09;20.58;;;17.63;;
9904;SDS011;4991;43.566;27.820;2023-08-06T03:59:35;22.60;;;19.15;;
9904;SDS011;4991;43.566;27.820;2023-08-06T04:02:01;20.30;;;18.20;;
9904;SDS011;4991;43.566;27.820;2023-08-06T04:04:27;22.08;;;18.02;;
9904;SDS011;4991;43.566;27.820;2023-08-06T04:06:53;19.80;;;16.10;;
9904;SDS011;4991;43.566;27.820;2023-08-06T04:09:18;21.92;;;15.60;;
9904;SDS011;4991;43.566;27.820;2023-08-06T04:11:44;18.83;;;16.45;;
9904;SDS011;4991;43.566;27.820;2023-08-06T04:14:10;17.80;;;15.80;;
9904;SDS011;4991;43.566;27.820;2023-08-06T04:16:36;18.73;;;15.43;;
9904;SDS011;4991;43.566;27.820;2023-08-06T04:19:01;17.13;;;15.35;;
9904;SDS011;4991;43.566;27.820;2023-08-06T04:21:27;17.45;;;15.50;;
9904;SDS011;4991;43.566;27.820;2023-08-06T04:23:53;18.25;;;15.30;;
9904;SDS011;4991;43.566;27.820;2023-08-06T04:26:18;23.42;;;15.82;;
9904;SDS011;4991;43.566;27.820;2023-08-06T04:28:44;17.00;;;15.23;;
9904;SDS011;4991;43.566;27.820;2023-08-06T04:31:09;17.35;;;14.65;;
9904;SDS011;4991;43.566;27.820;2023-08-06T04:33:35;17.30;;;15.48;;
9904;SDS011;4991;43.566;27.820;2023-08-06T04:36:01;17.23;;;15.63;;
9904;SDS011;4991;43.566;27.820;2023-08-06T04:38:26;17.10;;;15.00;;
9904;SDS011;4991;43.566;27.820;2023-08-06T04:40:52;17.67;;;14.90;;
9904;SDS011;4991;43.566;27.820;2023-08-06T04:43:18;17.75;;;15.18;;
9904;SDS011;4991;43.566;27.820;2023-08-06T04:45:47;19.65;;;15.02;;
9904;SDS011;4991;43.566;27.820;2023-08-06T04:48:16;19.30;;;15.77;;
9904;SDS011;4991;43.566;27.820;2023-08-06T04:50:45;18.27;;;15.57;;
9904;SDS011;4991;43.566;27.820;2023-08-06T04:53:11;16.00;;;14.30;;
9904;SDS011;4991;43.566;27.820;2023-08-06T04:55:37;18.42;;;14.50;;
9904;SDS011;4991;43.566;27.820;2023-08-06T04:58:03;14.90;;;13.57;;
9904;SDS011;4991;43.566;27.820;2023-08-06T05:00:29;15.82;;;13.98;;
9904;SDS011;4991;43.566;27.820;2023-08-06T05:02:54;16.75;;;15.07;;
9904;SDS011;4991;43.566;27.820;2023-08-06T05:05:20;18.45;;;14.27;;
9904;SDS011;4991;43.566;27.820;2023-08-06T05:07:47;22.38;;;14.95;;
9904;SDS011;4991;43.566;27.820;2023-08-06T05:10:14;17.85;;;14.40;;
9904;SDS011;4991;43.566;27.820;2023-08-06T05:12:40;24.13;;;14.55;;
9904;SDS011;4991;43.566;27.820;2023-08-06T05:15:06;15.60;;;13.35;;
9904;SDS011;4991;43.566;27.820;2023-08-06T05:17:32;14.77;;;13.27;;
9904;SDS011;4991;43.566;27.820;2023-08-06T05:19:57;15.13;;;13.23;;
9904;SDS011;4991;43.566;27.820;2023-08-06T05:22:23;15.48;;;13.45;;
9904;SDS011;4991;43.566;27.820;2023-08-06T05:24:49;15.55;;;12.77;;
9904;SDS011;4991;43.566;27.820;2023-08-06T05:27:14;14.23;;;12.82;;
9904;SDS011;4991;43.566;27.820;2023-08-06T05:29:40;14.68;;;13.10;;
9904;SDS011;4991;43.566;27.820;2023-08-06T05:32:05;16.40;;;12.63;;
9904;SDS011;4991;43.566;27.820;2023-08-06T05:34:31;15.80;;;11.73;;
9904;SDS011;4991;43.566;27.820;2023-08-06T05:36:57;13.77;;;11.88;;
9904;SDS011;4991;43.566;27.820;2023-08-06T05:39:22;17.92;;;12.45;;
9904;SDS011;4991;43.566;27.820;2023-08-06T05:41:48;14.23;;;11.15;;
9904;SDS011;4991;43.566;27.820;2023-08-06T05:44:15;16.13;;;12.73;;
9904;SDS011;4991;43.566;27.820;2023-08-06T05:46:41;13.57;;;11.00;;
9904;SDS011;4991;43.566;27.820;2023-08-06T05:49:06;11.60;;;10.40;;
9904;SDS011;4991;43.566;27.820;2023-08-06T05:51:32;11.52;;;9.60;;
9904;SDS011;4991;43.566;27.820;2023-08-06T05:53:58;12.20;;;9.88;;
9904;SDS011;4991;43.566;27.820;2023-08-06T05:56:23;10.68;;;9.57;;
9904;SDS011;4991;43.566;27.820;2023-08-06T05:58:49;12.40;;;10.07;;
9904;SDS011;4991;43.566;27.820;2023-08-06T06:01:18;12.95;;;9.60;;
9904;SDS011;4991;43.566;27.820;2023-08-06T06:03:44;9.73;;;8.73;;
9904;SDS011;4991;43.566;27.820;2023-08-06T06:06:10;9.48;;;8.57;;
9904;SDS011;4991;43.566;27.820;2023-08-06T06:08:35;11.65;;;8.73;;
9904;SDS011;4991;43.566;27.820;2023-08-06T06:11:01;9.82;;;8.93;;
9904;SDS011;4991;43.566;27.820;2023-08-06T06:13:26;11.93;;;7.90;;
9904;SDS011;4991;43.566;27.820;2023-08-06T06:15:55;9.07;;;8.18;;
9904;SDS011;4991;43.566;27.820;2023-08-06T06:18:21;8.25;;;7.45;;
9904;SDS011;4991;43.566;27.820;2023-08-06T06:20:47;10.68;;;8.77;;
9904;SDS011;4991;43.566;27.820;2023-08-06T06:23:13;13.65;;;9.00;;
9904;SDS011;4991;43.566;27.820;2023-08-06T06:25:43;12.88;;;8.23;;
9904;SDS011;4991;43.566;27.820;2023-08-06T06:28:11;15.55;;;10.65;;
9904;SDS011;4991;43.566;27.820;2023-08-06T06:30:37;8.77;;;7.90;;
9904;SDS011;4991;43.566;27.820;2023-08-06T06:33:03;10.20;;;8.70;;
9904;SDS011;4991;43.566;27.820;2023-08-06T06:35:28;8.43;;;7.63;;
9904;SDS011;4991;43.566;27.820;2023-08-06T06:37:55;11.75;;;9.45;;
9904;SDS011;4991;43.566;27.820;2023-08-06T06:40:21;10.15;;;8.77;;
9904;SDS011;4991;43.566;27.820;2023-08-06T06:42:46;11.45;;;8.57;;
9904;SDS011;4991;43.566;27.820;2023-08-06T06:45:12;13.05;;;9.15;;
9904;SDS011;4991;43.566;27.820;2023-08-06T06:47:38;10.35;;;7.80;;
9904;SDS011;4991;43.566;27.820;2023-08-06T06:50:03;12.13;;;8.50;;
9904;SDS011;4991;43.566;27.820;2023-08-06T06:52:29;12.25;;;8.77;;
9904;SDS011;4991;43.566;27.820;2023-08-06T06:54:55;9.98;;;8.55;;
9904;SDS011;4991;43.566;27.820;2023-08-06T06:57:20;11.57;;;8.30;;
9904;SDS011;4991;43.566;27.820;2023-08-06T06:59:46;10.05;;;7.65;;
9904;SDS011;4991;43.566;27.820;2023-08-06T07:02:12;9.32;;;7.47;;
9904;SDS011;4991;43.566;27.820;2023-08-06T07:04:37;10.98;;;7.53;;
9904;SDS011;4991;43.566;27.820;2023-08-06T07:07:03;8.60;;;7.68;;
9904;SDS011;4991;43.566;27.820;2023-08-06T07:09:29;11.90;;;7.72;;
9904;SDS011;4991;43.566;27.820;2023-08-06T07:11:54;11.57;;;8.27;;
9904;SDS011;4991;43.566;27.820;2023-08-06T07:14:20;11.98;;;7.55;;
9904;SDS011;4991;43.566;27.820;2023-08-06T07:16:46;9.88;;;7.65;;
9904;SDS011;4991;43.566;27.820;2023-08-06T07:19:11;12.27;;;7.45;;
9904;SDS011;4991;43.566;27.820;2023-08-06T07:21:37;8.43;;;7.45;;
9904;SDS011;4991;43.566;27.820;2023-08-06T07:24:02;9.98;;;7.03;;
9904;SDS011;4991;43.566;27.820;2023-08-06T07:26:28;9.43;;;7.50;;
9904;SDS011;4991;43.566;27.820;2023-08-06T07:28:54;11.02;;;7.22;;
9904;SDS011;4991;43.566;27.820;2023-08-06T07:31:20;8.20;;;6.82;;
9904;SDS011;4991;43.566;27.820;2023-08-06T07:33:45;11.32;;;7.00;;
9904;SDS011;4991;43.566;27.820;2023-08-06T07:36:11;7.75;;;7.03;;
9904;SDS011;4991;43.566;27.820;2023-08-06T07:38:38;8.23;;;6.53;;
9904;SDS011;4991;43.566;27.820;2023-08-06T07:41:04;8.82;;;6.38;;
9904;SDS011;4991;43.566;27.820;2023-08-06T07:43:30;7.57;;;6.28;;
9904;SDS011;4991;43.566;27.820;2023-08-06T07:45:59;10.52;;;6.35;;
9904;SDS011;4991;43.566;27.820;2023-08-06T07:48:25;7.80;;;6.68;;
9904;SDS011;4991;43.566;27.820;2023-08-06T07:50:52;9.38;;;6.68;;
9904;SDS011;4991;43.566;27.820;2023-08-06T07:53:19;8.82;;;6.47;;
9904;SDS011;4991;43.566;27.820;2023-08-06T07:55:51;9.02;;;6.90;;
9904;SDS011;4991;43.566;27.820;2023-08-06T07:58:19;9.93;;;5.80;;
9904;SDS011;4991;43.566;27.820;2023-08-06T08:00:45;7.57;;;5.72;;
9904;SDS011;4991;43.566;27.820;2023-08-06T08:03:14;7.93;;;7.15;;
9904;SDS011;4991;43.566;27.820;2023-08-06T08:05:43;10.80;;;6.68;;
9904;SDS011;4991;43.566;27.820;2023-08-06T08:08:09;9.73;;;6.70;;
9904;SDS011;4991;43.566;27.820;2023-08-06T08:10:35;11.05;;;6.72;;
9904;SDS011;4991;43.566;27.820;2023-08-06T08:13:05;9.30;;;5.75;;
9904;SDS011;4991;43.566;27.820;2023-08-06T08:15:31;7.28;;;6.30;;
9904;SDS011;4991;43.566;27.820;2023-08-06T08:17:57;9.35;;;6.30;;
9904;SDS011;4991;43.566;27.820;2023-08-06T08:20:24;7.68;;;6.00;;
9904;SDS011;4991;43.566;27.820;2023-08-06T08:22:50;7.97;;;5.72;;
9904;SDS011;4991;43.566;27.820;2023-08-06T08:25:15;7.38;;;6.45;;
9904;SDS011;4991;43.566;27.820;2023-08-06T08:27:41;8.65;;;5.80;;
9904;SDS011;4991;43.566;27.820;2023-08-06T08:30:10;7.03;;;5.28;;
9904;SDS011;4991;43.566;27.820;2023-08-06T08:32:35;10.15;;;5.57;;
9904;SDS011;4991;43.566;27.820;2023-08-06T08:35:01;6.97;;;6.28;;
9904;SDS011;4991;43.566;27.820;2023-08-06T08:37:27;7.90;;;6.53;;
9904;SDS011;4991;43.566;27.820;2023-08-06T08:39:52;10.32;;;5.82;;
9904;SDS011;4991;43.566;27.820;2023-08-06T08:42:18;8.10;;;5.75;;
9904;SDS011;4991;43.566;27.820;2023-08-06T08:44:44;10.57;;;5.80;;
9904;SDS011;4991;43.566;27.820;2023-08-06T08:47:10;7.18;;;5.72;;
9904;SDS011;4991;43.566;27.820;2023-08-06T08:49:37;6.68;;;5.50;;
9904;SDS011;4991;43.566;27.820;2023-08-06T08:52:04;5.93;;;5.07;;
9904;SDS011;4991;43.566;27.820;2023-08-06T08:54:35;7.75;;;6.15;;
9904;SDS011;4991;43.566;27.820;2023-08-06T08:57:03;8.68;;;6.65;;
9904;SDS011;4991;43.566;27.820;2023-08-06T08:59:29;7.70;;;5.53;;
9904;SDS011;4991;43.566;27.820;2023-08-06T09:01:55;6.35;;;5.60;;
9904;SDS011;4991;43.566;27.820;2023-08-06T09:04:22;8.23;;;5.00;;
9904;SDS011;4991;43.566;27.820;2023-08-06T09:06:50;8.75;;;5.78;;
9904;SDS011;4991;43.566;27.820;2023-08-06T09:09:30;8.32;;;5.68;;
9904;SDS011;4991;43.566;27.820;2023-08-06T09:12:01;7.22;;;5.82;;
9904;SDS011;4991;43.566;27.820;2023-08-06T09:14:31;7.50;;;5.47;;
9904;SDS011;4991;43.566;27.820;2023-08-06T09:16:56;6.05;;;5.45;;
9904;SDS011;4991;43.566;27.820;2023-08-06T09:19:23;8.60;;;5.63;;
9904;SDS011;4991;43.566;27.820;2023-08-06T09:21:50;11.02;;;6.03;;
9904;SDS011;4991;43.566;27.820;2023-08-06T09:24:16;8.25;;;5.75;;
9904;SDS011;4991;43.566;27.820;2023-08-06T09:26:45;8.30;;;5.85;;
9904;SDS011;4991;43.566;27.820;2023-08-06T09:29:11;9.07;;;6.80;;
9904;SDS011;4991;43.566;27.820;2023-08-06T09:31:43;6.97;;;6.18;;
9904;SDS011;4991;43.566;27.820;2023-08-06T09:34:14;9.20;;;7.38;;
9904;SDS011;4991;43.566;27.820;2023-08-06T09:36:51;10.18;;;5.90;;
9904;SDS011;4991;43.566;27.820;2023-08-06T09:39:20;14.32;;;5.70;;
9904;SDS011;4991;43.566;27.820;2023-08-06T09:41:55;7.25;;;6.00;;
9904;SDS011;4991;43.566;27.820;2023-08-06T09:44:25;10.73;;;5.55;;
9904;SDS011;4991;43.566;27.820;2023-08-06T09:49:19;8.68;;;7.57;;
9904;SDS011;4991;43.566;27.820;2023-08-06T09:51:48;7.53;;;5.57;;
9904;SDS011;4991;43.566;27.820;2023-08-06T09:54:17;7.63;;;5.97;;
9904;SDS011;4991;43.566;27.820;2023-08-06T09:56:45;7.00;;;6.25;;
9904;SDS011;4991;43.566;27.820;2023-08-06T09:59:11;7.18;;;5.65;;
9904;SDS011;4991;43.566;27.820;2023-08-06T10:01:38;5.55;;;4.72;;
9904;SDS011;4991;43.566;27.820;2023-08-06T10:04:04;5.25;;;4.78;;
9904;SDS011;4991;43.566;27.820;2023-08-06T10:06:35;6.97;;;4.82;;
9904;SDS011;4991;43.566;27.820;2023-08-06T10:09:01;5.43;;;4.82;;
9904;SDS011;4991;43.566;27.820;2023-08-06T10:11:27;6.13;;;4.70;;
9904;SDS011;4991;43.566;27.820;2023-08-06T10:13:55;6.43;;;5.43;;
9904;SDS011;4991;43.566;27.820;2023-08-06T10:16:28;5.15;;;4.50;;
9904;SDS011;4991;43.566;27.820;2023-08-06T10:18:55;5.60;;;4.97;;
9904;SDS011;4991;43.566;27.820;2023-08-06T10:21:23;6.32;;;4.88;;
9904;SDS011;4991;43.566;27.820;2023-08-06T10:23:55;9.65;;;5.65;;
9904;SDS011;4991;43.566;27.820;2023-08-06T10:26:24;18.67;;;16.75;;
9904;SDS011;4991;43.566;27.820;2023-08-06T10:28:51;5.63;;;5.13;;
9904;SDS011;4991;43.566;27.820;2023-08-06T10:31:18;6.18;;;5.10;;
9904;SDS011;4991;43.566;27.820;2023-08-06T10:33:47;6.13;;;4.65;;
9904;SDS011;4991;43.566;27.820;2023-08-06T10:36:13;8.45;;;5.25;;
9904;SDS011;4991;43.566;27.820;2023-08-06T10:38:47;6.63;;;5.47;;
9904;SDS011;4991;43.566;27.820;2023-08-06T10:41:27;7.22;;;4.80;;
9904;SDS011;4991;43.566;27.820;2023-08-06T10:44:11;6.30;;;5.70;;
9904;SDS011;4991;43.566;27.820;2023-08-06T10:46:37;6.82;;;5.68;;
9904;SDS011;4991;43.566;27.820;2023-08-06T10:49:03;7.30;;;4.93;;
9904;SDS011;4991;43.566;27.820;2023-08-06T10:51:30;6.40;;;5.10;;
9904;SDS011;4991;43.566;27.820;2023-08-06T10:53:56;6.90;;;5.65;;
9904;SDS011;4991;43.566;27.820;2023-08-06T10:56:23;6.40;;;5.30;;
9904;SDS011;4991;43.566;27.820;2023-08-06T10:58:56;9.25;;;5.75;;
9904;SDS011;4991;43.566;27.820;2023-08-06T11:01:23;5.90;;;5.40;;
9904;SDS011;4991;43.566;27.820;2023-08-06T11:03:50;5.88;;;5.38;;
9904;SDS011;4991;43.566;27.820;2023-08-06T11:06:19;7.43;;;4.93;;
9904;SDS011;4991;43.566;27.820;2023-08-06T11:08:49;6.35;;;5.80;;
9904;SDS011;4991;43.566;27.820;2023-08-06T11:11:16;5.82;;;5.32;;
9904;SDS011;4991;43.566;27.820;2023-08-06T11:13:44;5.88;;;5.03;;
9904;SDS011;4991;43.566;27.820;2023-08-06T11:16:14;7.65;;;6.03;;
9904;SDS011;4991;43.566;27.820;2023-08-06T11:18:41;6.45;;;5.03;;
9904;SDS011;4991;43.566;27.820;2023-08-06T11:21:07;5.72;;;5.22;;
9904;SDS011;4991;43.566;27.820;2023-08-06T11:23:33;7.47;;;5.10;;
9904;SDS011;4991;43.566;27.820;2023-08-06T11:26:00;6.90;;;6.18;;
9904;SDS011;4991;43.566;27.820;2023-08-06T11:28:26;9.73;;;5.70;;
9904;SDS011;4991;43.566;27.820;2023-08-06T11:30:51;5.88;;;5.30;;
9904;SDS011;4991;43.566;27.820;2023-08-06T11:33:21;6.10;;;5.60;;
9904;SDS011;4991;43.566;27.820;2023-08-06T11:35:56;7.45;;;5.93;;
9904;SDS011;4991;43.566;27.820;2023-08-06T11:38:29;23.27;;;21.05;;
9904;SDS011;4991;43.566;27.820;2023-08-06T11:40:56;6.35;;;5.13;;
9904;SDS011;4991;43.566;27.820;2023-08-06T11:43:22;6.68;;;5.28;;
9904;SDS011;4991;43.566;27.820;2023-08-06T11:45:48;6.50;;;5.53;;
9904;SDS011;4991;43.566;27.820;2023-08-06T11:48:14;7.55;;;5.57;;
9904;SDS011;4991;43.566;27.820;2023-08-06T11:50:40;7.47;;;5.68;;
9904;SDS011;4991;43.566;27.820;2023-08-06T11:53:05;7.22;;;6.55;;
9904;SDS011;4991;43.566;27.820;2023-08-06T11:55:31;8.57;;;6.65;;
9904;SDS011;4991;43.566;27.820;2023-08-06T11:57:57;6.72;;;6.05;;
9904;SDS011;4991;43.566;27.820;2023-08-06T12:00:24;6.70;;;6.05;;
9904;SDS011;4991;43.566;27.820;2023-08-06T12:02:50;8.75;;;6.03;;
9904;SDS011;4991;43.566;27.820;2023-08-06T12:05:18;7.55;;;6.85;;
9904;SDS011;4991;43.566;27.820;2023-08-06T12:07:52;6.68;;;6.07;;
9904;SDS011;4991;43.566;27.820;2023-08-06T12:10:20;6.57;;;5.88;;
9904;SDS011;4991;43.566;27.820;2023-08-06T12:12:49;7.15;;;5.43;;
9904;SDS011;4991;43.566;27.820;2023-08-06T12:15:15;11.23;;;4.07;;
9904;SDS011;4991;43.566;27.820;2023-08-06T12:17:41;32.88;;;4.97;;
9904;SDS011;4991;43.566;27.820;2023-08-06T12:20:07;10.52;;;2.28;;
9904;SDS011;4991;43.566;27.820;2023-08-06T12:22:34;0.40;;;0.40;;
9904;SDS011;4991;43.566;27.820;2023-08-06T12:25:04;0.40;;;0.40;;
9904;SDS011;4991;43.566;27.820;2023-08-06T12:27:33;0.40;;;0.40;;
9904;SDS011;4991;43.566;27.820;2023-08-06T12:30:06;0.40;;;0.40;;
9904;SDS011;4991;43.566;27.820;2023-08-06T12:32:33;0.40;;;0.40;;
9904;SDS011;4991;43.566;27.820;2023-08-06T12:34:59;0.40;;;0.40;;
9904;SDS011;4991;43.566;27.820;2023-08-06T12:37:26;0.40;;;0.40;;
9904;SDS011;4991;43.566;27.820;2023-08-06T12:39:51;0.40;;;0.40;;
9904;SDS011;4991;43.566;27.820;2023-08-06T12:42:17;0.40;;;0.40;;
9904;SDS011;4991;43.566;27.820;2023-08-06T12:44:42;0.40;;;0.40;;
9904;SDS011;4991;43.566;27.820;2023-08-06T12:47:08;0.40;;;0.40;;
9904;SDS011;4991;43.566;27.820;2023-08-06T12:49:34;0.40;;;0.40;;
9904;SDS011;4991;43.566;27.820;2023-08-06T12:52:00;0.40;;;0.40;;
9904;SDS011;4991;43.566;27.820;2023-08-06T12:54:25;0.40;;;0.40;;
9904;SDS011;4991;43.566;27.820;2023-08-06T12:56:52;0.40;;;0.40;;
9904;SDS011;4991;43.566;27.820;2023-08-06T12:59:18;0.40;;;0.40;;
9904;SDS011;4991;43.566;27.820;2023-08-06T13:01:44;0.40;;;0.40;;
9904;SDS011;4991;43.566;27.820;2023-08-06T13:04:10;0.82;;;0.82;;
9904;SDS011;4991;43.566;27.820;2023-08-06T13:06:36;0.40;;;0.40;;
9904;SDS011;4991;43.566;27.820;2023-08-06T13:09:03;0.40;;;0.40;;
9904;SDS011;4991;43.566;27.820;2023-08-06T13:11:29;0.40;;;0.40;;
9904;SDS011;4991;43.566;27.820;2023-08-06T13:13:58;0.40;;;0.40;;
9904;SDS011;4991;43.566;27.820;2023-08-06T13:16:28;0.40;;;0.40;;
9904;SDS011;4991;43.566;27.820;2023-08-06T13:18:56;0.40;;;0.40;;
9904;SDS011;4991;43.566;27.820;2023-08-06T13:21:22;0.32;;;0.32;;
9904;SDS011;4991;43.566;27.820;2023-08-06T13:23:48;0.38;;;0.38;;
9904;SDS011;4991;43.566;27.820;2023-08-06T13:26:13;0.40;;;0.40;;
9904;SDS011;4991;43.566;27.820;2023-08-06T13:28:41;0.40;;;0.40;;
9904;SDS011;4991;43.566;27.820;2023-08-06T13:31:06;0.40;;;0.40;;
9904;SDS011;4991;43.566;27.820;2023-08-06T13:33:32;0.40;;;0.40;;
9904;SDS011;4991;43.566;27.820;2023-08-06T13:35:58;0.40;;;0.40;;
9904;SDS011;4991;43.566;27.820;2023-08-06T13:38:23;0.50;;;0.50;;
9904;SDS011;4991;43.566;27.820;2023-08-06T13:40:49;0.50;;;0.50;;
9904;SDS011;4991;43.566;27.820;2023-08-06T13:43:14;0.50;;;0.50;;
9904;SDS011;4991;43.566;27.820;2023-08-06T13:45:42;0.50;;;0.50;;
9904;SDS011;4991;43.566;27.820;2023-08-06T13:48:07;0.60;;;0.60;;
9904;SDS011;4991;43.566;27.820;2023-08-06T13:50:35;0.50;;;0.50;;
9904;SDS011;4991;43.566;27.820;2023-08-06T13:53:01;0.50;;;0.50;;
9904;SDS011;4991;43.566;27.820;2023-08-06T13:55:27;0.80;;;0.80;;
9904;SDS011;4991;43.566;27.820;2023-08-06T13:57:53;0.50;;;0.50;;
9904;SDS011;4991;43.566;27.820;2023-08-06T14:00:18;0.50;;;0.50;;
9904;SDS011;4991;43.566;27.820;2023-08-06T14:02:44;0.50;;;0.50;;
9904;SDS011;4991;43.566;27.820;2023-08-06T14:05:10;0.60;;;0.60;;
9904;SDS011;4991;43.566;27.820;2023-08-06T14:07:35;0.50;;;0.50;;
9904;SDS011;4991;43.566;27.820;2023-08-06T14:10:01;0.65;;;0.65;;
9904;SDS011;4991;43.566;27.820;2023-08-06T14:12:26;0.50;;;0.50;;
9904;SDS011;4991;43.566;27.820;2023-08-06T14:14:52;0.60;;;0.60;;
9904;SDS011;4991;43.566;27.820;2023-08-06T14:17:18;0.55;;;0.55;;
9904;SDS011;4991;43.566;27.820;2023-08-06T14:19:43;0.50;;;0.50;;
9904;SDS011;4991;43.566;27.820;2023-08-06T14:22:09;0.50;;;0.50;;
9904;SDS011;4991;43.566;27.820;2023-08-06T14:24:34;0.50;;;0.50;;
9904;SDS011;4991;43.566;27.820;2023-08-06T14:27:00;0.52;;;0.52;;
9904;SDS011;4991;43.566;27.820;2023-08-06T14:29:26;1.90;;;1.75;;
9904;SDS011;4991;43.566;27.820;2023-08-06T14:31:51;4.22;;;3.10;;
9904;SDS011;4991;43.566;27.820;2023-08-06T14:34:17;3.53;;;3.22;;
9904;SDS011;4991;43.566;27.820;2023-08-06T14:36:42;3.78;;;3.40;;
9904;SDS011;4991;43.566;27.820;2023-08-06T14:39:08;3.97;;;3.50;;
9904;SDS011;4991;43.566;27.820;2023-08-06T14:41:33;4.05;;;3.65;;
9904;SDS011;4991;43.566;27.820;2023-08-06T14:43:59;6.25;;;3.53;;
9904;SDS011;4991;43.566;27.820;2023-08-06T14:46:25;3.75;;;3.33;;
9904;SDS011;4991;43.566;27.820;2023-08-06T14:48:50;3.95;;;3.58;;
9904;SDS011;4991;43.566;27.820;2023-08-06T14:51:16;4.60;;;3.67;;
9904;SDS011;4991;43.566;27.820;2023-08-06T14:53:44;3.78;;;3.42;;